Time;durP1;ratioP1;P1;durP2;ratioP2;P2;SDS_P1;SDS_P2;PMS_P1;PMS_P2;Temp;Humidity;BMP_temperature;BMP_pressure;BME280_temperature;BME280_humidity;BME280_pressure;Samples;Min_cycle;Max_cycle;Signal;HPM_P1;HPM_P2
2021/05/14 03:31:14;;;;;;;2.20;2.00;;;;;;;13.91;54.96;97975.03;8064757;22;20276;-83
2021/05/14 03:34:35;;;;;;;2.17;2.00;;;;;;;14.14;53.95;97964.00;6908437;28;20243;-84
2021/05/14 03:37:56;;;;;;;3.47;2.40;;;;;;;14.24;52.60;97957.94;6896102;28;20232;-82
2021/05/14 03:41:30;;;;;;;3.00;2.00;;;;;;;14.34;52.46;97974.38;6907392;28;20220;-84
2021/05/14 03:44:51;;;;;;;1.97;1.87;;;;;;;14.16;53.37;97977.31;6897190;28;20192;-84
2021/05/14 03:48:19;;;;;;;2.23;2.13;;;;;;;14.20;52.88;97984.75;6896781;28;20292;-84
2021/05/14 03:51:41;;;;;;;2.97;2.10;;;;;;;14.38;52.22;97970.06;6896138;28;20231;-84
2021/05/14 03:55:03;;;;;;;2.53;1.90;;;;;;;14.53;52.21;97975.72;6896052;28;20212;-84
2021/05/14 03:58:24;;;;;;;3.13;2.23;;;;;;;14.79;50.97;97978.53;6896818;28;20225;-83
2021/05/14 04:01:45;;;;;;;2.00;1.90;;;;;;;14.49;51.78;97980.00;6895977;28;20230;-81
2021/05/14 04:05:08;;;;;;;2.13;1.93;;;;;;;13.98;53.10;97970.25;6896562;28;20703;-82
2021/05/14 04:08:29;;;;;;;5.73;2.53;;;;;;;14.02;53.75;97968.69;6896280;28;20196;-82
2021/05/14 04:15:26;;;;;;;4.97;2.17;;;;;;;14.14;53.15;97966.72;6897321;28;20214;-82
2021/05/14 04:18:47;;;;;;;3.90;2.13;;;;;;;13.85;53.76;97973.28;6886662;28;20224;-83
2021/05/14 04:22:09;;;;;;;3.17;2.30;;;;;;;14.42;52.93;97976.66;6901238;28;20241;-83
2021/05/14 04:25:31;;;;;;;2.13;2.03;;;;;;;14.36;52.93;97966.81;6894764;28;20218;-83
2021/05/14 04:28:52;;;;;;;3.40;2.20;;;;;;;14.53;52.71;97971.13;6885310;28;20692;-84
2021/05/14 04:32:13;;;;;;;2.50;2.30;;;;;;;14.34;53.14;97977.09;6875843;28;20233;-84
2021/05/14 04:35:34;;;;;;;2.43;2.23;;;;;;;14.41;52.63;97984.00;6880610;28;20200;-82
2021/05/14 04:38:56;;;;;;;2.57;2.07;;;;;;;14.73;51.48;97978.72;6893928;28;20229;-83
2021/05/14 04:42:17;;;;;;;2.20;2.00;;;;;;;14.53;51.17;97983.88;6893632;28;20228;-84
2021/05/14 04:45:41;;;;;;;2.17;2.07;;;;;;;14.25;52.46;97981.28;6893986;28;20218;-83
2021/05/14 04:49:02;;;;;;;2.20;2.00;;;;;;;13.33;53.85;97977.25;6896362;28;20567;-83
2021/05/14 04:52:26;;;;;;;2.77;2.20;;;;;;;14.27;52.59;97984.56;6893235;28;20225;-83
2021/05/14 04:55:49;;;;;;;2.03;1.93;;;;;;;14.51;51.24;97973.25;6894354;28;20620;-83
2021/05/14 04:59:10;;;;;;;4.10;2.07;;;;;;;14.58;51.81;97978.53;6869018;28;20245;-82
2021/05/14 05:02:31;;;;;;;3.27;2.30;;;;;;;13.69;53.94;97990.34;6867294;28;20255;-81
2021/05/14 05:05:52;;;;;;;3.33;2.10;;;;;;;13.45;56.54;97986.13;6867809;28;20214;-83
2021/05/14 05:09:13;;;;;;;3.60;2.40;;;;;;;14.41;53.92;97986.69;6888364;28;20291;-81
2021/05/14 05:12:35;;;;;;;2.90;2.53;;;;;;;14.73;51.80;97973.28;6894686;28;20706;-83
2021/05/14 05:15:56;;;;;;;2.27;2.17;;;;;;;15.33;50.92;97983.03;6893844;28;20295;-83
2021/05/14 05:19:18;;;;;;;4.00;2.70;;;;;;;15.72;49.57;97973.66;6892365;28;20235;-83
2021/05/14 05:22:39;;;;;;;4.73;2.20;;;;;;;15.90;49.14;97973.25;6892606;28;20233;-84
2021/05/14 05:26:00;;;;;;;3.20;2.20;;;;;;;16.16;48.58;97988.69;6892467;28;20204;-84
2021/05/14 05:29:22;;;;;;;3.80;2.17;;;;;;;16.22;48.43;97990.38;6887777;28;20202;-83
2021/05/14 05:32:43;;;;;;;2.33;2.13;;;;;;;16.20;48.73;97986.28;6865036;28;20236;-84
2021/05/14 05:36:05;;;;;;;2.70;2.50;;;;;;;16.65;47.08;97994.78;6865472;28;20368;-83
2021/05/14 05:39:26;;;;;;;1.93;1.80;;;;;;;16.85;45.80;97990.28;6865103;28;20211;-84
2021/05/14 05:42:47;;;;;;;7.00;1.80;;;;;;;17.17;45.16;97984.72;6867127;28;20243;-83
2021/05/14 05:46:09;;;;;;;2.40;1.70;;;;;;;17.42;44.53;97987.53;6893635;28;20251;-84
2021/05/14 05:49:30;;;;;;;1.70;1.60;;;;;;;18.08;43.19;97994.72;6890516;28;20581;-84
2021/05/14 05:52:54;;;;;;;1.70;1.57;;;;;;;18.02;42.98;98009.47;6890139;28;20232;-83
2021/05/14 05:56:15;;;;;;;3.87;1.60;;;;;;;17.29;44.29;97999.72;6891460;28;20636;-84
2021/05/14 05:59:38;;;;;;;2.50;1.70;;;;;;;17.32;44.83;98018.28;6881596;28;20215;-84
2021/05/14 06:03:01;;;;;;;2.93;1.70;;;;;;;17.56;44.49;98013.19;6913502;28;20216;-84
2021/05/14 06:06:24;;;;;;;2.30;1.60;;;;;;;18.45;42.79;98008.97;6896835;28;20338;-84
2021/05/14 06:09:45;;;;;;;2.37;1.80;;;;;;;18.06;43.06;98005.09;6895867;28;20211;-84
2021/05/14 06:13:06;;;;;;;2.57;1.63;;;;;;;18.45;42.18;98012.50;6892285;28;20232;-84
2021/05/14 06:16:28;;;;;;;1.37;1.27;;;;;;;18.28;42.59;98011.94;6878063;28;20242;-84
2021/05/14 06:19:52;;;;;;;2.27;1.57;;;;;;;18.55;42.21;98023.41;6865811;28;20212;-84
2021/05/14 06:23:14;;;;;;;2.50;1.70;;;;;;;19.06;41.91;98022.22;6870246;28;20323;-83
2021/05/14 06:26:35;;;;;;;2.10;1.67;;;;;;;18.40;41.44;98014.44;6901496;28;20196;-84
2021/05/14 06:29:56;;;;;;;2.23;1.63;;;;;;;18.19;43.15;98031.84;6896255;28;20485;-84
2021/05/14 06:33:18;;;;;;;2.40;1.40;;;;;;;18.13;43.06;98013.84;6896258;28;20224;-84
2021/05/14 06:36:40;;;;;;;4.27;1.37;;;;;;;18.96;41.18;98026.88;6896683;28;20232;-84
2021/05/14 06:40:01;;;;;;;2.53;1.60;;;;;;;18.30;42.79;98025.31;6898903;28;20200;-83
2021/05/14 06:43:22;;;;;;;1.60;1.50;;;;;;;18.26;43.02;98016.00;6906286;28;20227;-84
2021/05/14 06:46:44;;;;;;;1.63;1.53;;;;;;;18.67;42.73;98032.13;6891614;28;20205;-84
2021/05/14 06:50:07;;;;;;;1.60;1.50;;;;;;;18.95;41.01;98025.25;6902268;28;20204;-84
2021/05/14 06:53:29;;;;;;;2.63;1.40;;;;;;;19.62;40.27;98031.84;6880578;28;20228;-84
2021/05/14 06:56:50;;;;;;;2.67;1.53;;;;;;;20.32;38.84;98014.16;6884803;28;20227;-84
2021/05/14 07:00:13;;;;;;;1.60;1.50;;;;;;;20.63;39.41;97997.19;6895037;28;20663;-84
2021/05/14 07:03:34;;;;;;;1.73;1.20;;;;;;;19.75;39.37;98033.16;6896151;28;20199;-83
2021/05/14 07:06:55;;;;;;;1.60;1.50;;;;;;;20.40;38.75;98013.56;6895972;28;20212;-85
2021/05/14 07:10:17;;;;;;;2.17;1.30;;;;;;;20.74;38.17;98034.34;6895379;28;20212;-83
2021/05/14 07:13:38;;;;;;;2.10;1.50;;;;;;;20.74;37.67;98031.59;6895518;28;20647;-84
2021/05/14 07:17:00;;;;;;;1.40;1.30;;;;;;;21.00;37.23;98016.56;6915207;28;20570;-84
2021/05/14 07:20:21;;;;;;;2.67;1.40;;;;;;;20.92;37.01;98011.72;6894725;28;20247;-84
2021/05/14 07:23:43;;;;;;;2.03;1.37;;;;;;;19.31;39.11;98021.34;6895335;28;20209;-84
2021/05/14 07:27:05;;;;;;;1.37;1.33;;;;;;;19.96;39.95;98021.81;6895877;28;20208;-85
2021/05/14 07:30:26;;;;;;;1.30;1.20;;;;;;;20.56;38.50;98023.25;6894246;28;20214;-86
2021/05/14 07:33:47;;;;;;;1.30;1.20;;;;;;;21.17;37.54;98008.69;6895493;28;20189;-85
2021/05/14 07:37:09;;;;;;;1.20;1.10;;;;;;;20.58;36.78;98027.34;6895149;28;20233;-83
2021/05/14 07:40:30;;;;;;;1.40;1.30;;;;;;;20.91;38.22;98025.69;6895085;28;20213;-85
2021/05/14 07:43:53;;;;;;;1.17;1.03;;;;;;;21.35;36.23;98016.13;6895934;28;20208;-83
2021/05/14 07:47:14;;;;;;;3.37;1.47;;;;;;;21.83;35.62;97993.06;6893140;28;20280;-85
2021/05/14 07:50:36;;;;;;;2.50;2.30;;;;;;;22.73;33.93;98003.38;6892497;28;20223;-82
2021/05/14 07:53:57;;;;;;;5.30;2.07;;;;;;;22.29;34.39;98005.75;6894885;28;20189;-85
2021/05/14 07:57:18;;;;;;;2.27;1.43;;;;;;;21.81;34.73;98020.78;6895053;28;20258;-85
2021/05/14 08:00:40;;;;;;;19.07;6.60;;;;;;;21.82;36.62;98000.44;6894157;28;20224;-85
2021/05/14 08:04:02;;;;;;;15.77;8.00;;;;;;;21.52;35.73;97994.53;6895429;28;20572;-83
2021/05/14 08:07:23;;;;;;;4.27;2.73;;;;;;;21.53;35.81;98016.19;6914468;28;20216;-84
2021/05/14 08:10:45;;;;;;;37.40;17.00;;;;;;;21.10;36.62;98021.94;6884513;28;20225;-84
2021/05/14 08:14:06;;;;;;;16.40;7.63;;;;;;;21.02;37.19;98030.78;6895877;28;20236;-87
2021/05/14 08:17:28;;;;;;;20.67;8.73;;;;;;;21.20;35.73;98016.34;6895462;28;20225;-84
2021/05/14 08:20:49;;;;;;;2.73;1.60;;;;;;;20.48;37.08;98024.72;6886420;28;20225;-84
2021/05/14 08:24:11;;;;;;;2.87;1.20;;;;;;;20.44;37.38;98020.09;6894581;28;20219;-86
2021/05/14 08:27:32;;;;;;;2.13;1.87;;;;;;;20.54;38.90;98025.47;6894793;28;20224;-85
2021/05/14 08:30:53;;;;;;;2.40;1.90;;;;;;;21.63;35.87;98012.50;6894858;28;20287;-85
2021/05/14 08:34:15;;;;;;;1.50;0.97;;;;;;;20.80;36.55;97975.63;6895489;28;20191;-85
2021/05/14 08:37:37;;;;;;;4.37;2.07;;;;;;;20.94;37.77;98011.44;6895594;28;20877;-86
2021/05/14 08:41:03;;;;;;;7.20;3.13;;;;;;;21.97;35.96;98008.47;6892900;28;20259;-84
2021/05/14 08:44:26;;;;;;;23.57;9.27;;;;;;;22.87;34.69;98019.91;6895364;28;20208;-85
2021/05/14 08:47:48;;;;;;;2.53;1.63;;;;;;;22.17;34.43;98021.88;6893926;28;20212;-85
2021/05/14 08:51:11;;;;;;;1.50;0.83;;;;;;;22.33;34.84;98020.53;6893473;28;20238;-84
2021/05/14 08:54:33;;;;;;;4.17;1.10;;;;;;;22.06;35.08;98023.16;6893025;28;20576;-84
2021/05/14 08:57:54;;;;;;;4.37;2.13;;;;;;;21.62;36.12;98019.91;6893454;28;20321;-84
2021/05/14 09:01:15;;;;;;;2.90;2.20;;;;;;;21.47;36.55;98022.84;6892763;28;20235;-85
2021/05/14 09:04:36;;;;;;;2.70;1.27;;;;;;;21.22;35.62;98035.25;6893629;28;20209;-84
2021/05/14 09:07:59;;;;;;;1.20;0.97;;;;;;;20.25;37.40;98020.00;6874437;28;20213;-85
2021/05/14 09:11:32;;;;;;;2.60;1.50;;;;;;;21.44;36.16;98009.72;6892354;28;20587;-85
2021/05/14 09:14:53;;;;;;;2.30;1.43;;;;;;;21.95;35.73;98002.44;6894387;28;20273;-86
2021/05/14 09:18:16;;;;;;;1.13;1.03;;;;;;;22.50;34.21;98015.34;6893587;28;20624;-85
2021/05/14 09:21:37;;;;;;;2.73;1.20;;;;;;;22.49;34.01;98013.69;6881738;28;20236;-84
2021/05/14 09:25:02;;;;;;;1.53;1.17;;;;;;;21.30;35.76;98017.03;6885401;28;20210;-85
2021/05/14 09:28:24;;;;;;;1.73;1.03;;;;;;;21.78;34.84;98021.34;6891853;28;20198;-85
2021/05/14 09:31:45;;;;;;;0.87;0.83;;;;;;;21.32;35.58;98005.78;6891392;28;20244;-84
2021/05/14 09:35:08;;;;;;;1.60;1.27;;;;;;;21.90;35.33;98005.25;6892955;28;20212;-85
2021/05/14 09:38:42;;;;;;;2.00;1.03;;;;;;;22.61;32.97;98019.53;6894166;28;20224;-85
2021/05/14 09:42:04;;;;;;;1.20;1.07;;;;;;;21.96;33.75;98004.06;6893255;28;20236;-85
2021/05/14 09:45:27;;;;;;;0.93;0.80;;;;;;;22.30;33.81;98014.84;6892643;28;20207;-84
2021/05/14 09:48:55;;;;;;;0.70;0.70;;;;;;;21.44;35.75;98006.16;6892636;28;20209;-84
2021/05/14 09:52:26;;;;;;;1.30;1.20;;;;;;;22.28;34.55;98012.38;6891923;28;20220;-84
2021/05/14 09:55:50;;;;;;;1.63;1.00;;;;;;;23.23;33.40;97987.88;6891981;28;20199;-85
2021/05/14 09:59:12;;;;;;;0.80;0.80;;;;;;;22.15;34.15;98001.31;6879413;28;20231;-84
2021/05/14 10:02:34;;;;;;;4.57;1.10;;;;;;;21.82;34.96;97992.22;6865036;28;20583;-84
2021/05/14 10:05:56;;;;;;;1.00;1.00;;;;;;;22.82;33.13;98003.50;6874003;28;20207;-84
2021/05/14 10:09:19;;;;;;;1.40;1.10;;;;;;;22.36;31.90;98005.41;6892001;28;20210;-84
2021/05/14 10:12:41;;;;;;;0.63;0.63;;;;;;;22.52;32.74;98012.28;6895841;28;20231;-84
2021/05/14 10:16:04;;;;;;;2.17;0.70;;;;;;;22.04;37.14;98014.41;6897450;28;20205;-84
2021/05/14 10:19:26;;;;;;;1.63;1.10;;;;;;;21.01;41.79;97999.03;6894931;28;20241;-84
2021/05/14 10:22:50;;;;;;;3.53;1.30;;;;;;;20.49;46.28;98029.09;6891647;28;20234;-84
2021/05/14 10:26:12;;;;;;;1.20;1.00;;;;;;;20.12;45.53;98023.38;6879894;28;20205;-86
2021/05/14 10:29:37;;;;;;;1.27;1.20;;;;;;;20.83;43.32;98027.13;6866508;28;20693;-83
2021/05/14 10:32:59;;;;;;;1.40;1.30;;;;;;;21.33;41.86;98024.69;6866951;28;20249;-85
2021/05/14 10:36:43;;;;;;;2.13;1.23;;;;;;;21.11;42.06;98018.06;6867413;28;20210;-86
2021/05/14 10:40:14;;;;;;;1.37;1.00;;;;;;;21.06;40.43;98007.19;6866633;28;20209;-85
2021/05/14 10:44:00;;;;;;;2.13;1.80;;;;;;;21.23;41.06;98012.19;6885874;28;20275;-84
2021/05/14 10:47:47;;;;;;;1.00;1.00;;;;;;;22.01;39.36;98004.00;6892732;28;20218;-84
2021/05/14 10:51:10;;;;;;;1.93;1.20;;;;;;;22.25;37.09;98003.91;6899720;28;20256;-83
2021/05/14 10:54:50;;;;;;;1.10;0.80;;;;;;;21.64;35.21;98011.38;6917464;28;20196;-85
2021/05/14 10:58:41;;;;;;;0.83;0.83;;;;;;;21.74;35.36;98005.78;6875272;28;20704;-84
2021/05/14 11:02:26;;;;;;;2.03;1.17;;;;;;;22.86;34.88;98007.28;6901308;28;20221;-83
2021/05/14 11:05:49;;;;;;;4.13;1.30;;;;;;;22.71;35.85;98013.84;6919460;28;20250;-83
2021/05/14 11:09:12;;;;;;;0.77;0.77;;;;;;;21.99;35.81;98003.50;6899603;28;20206;-82
2021/05/14 11:12:33;;;;;;;1.07;0.93;;;;;;;22.28;35.15;98022.53;6898255;28;20235;-83
2021/05/14 11:15:54;;;;;;;1.17;1.00;;;;;;;21.99;35.18;97992.50;6896456;28;20204;-84
2021/05/14 11:19:18;;;;;;;2.37;1.83;;;;;;;20.49;37.97;98033.75;6895876;28;20225;-83
2021/05/14 11:22:39;;;;;;;1.63;0.90;;;;;;;19.93;41.23;98033.31;6896233;28;20924;-84
2021/05/14 11:26:01;;;;;;;1.20;1.10;;;;;;;20.15;43.23;98028.25;6896224;28;20215;-85
2021/05/14 11:29:30;;;;;;;1.40;1.30;;;;;;;19.68;45.10;98025.25;6896011;28;20217;-84
2021/05/14 11:32:54;;;;;;;1.23;1.03;;;;;;;19.46;43.30;98029.47;6895665;28;20265;-86
2021/05/14 11:36:15;;;;;;;1.80;1.10;;;;;;;19.95;43.79;98030.28;6894874;28;20665;-84
2021/05/14 11:39:36;;;;;;;1.10;1.00;;;;;;;19.70;42.33;98027.72;6894939;28;20696;-85
2021/05/14 11:42:59;;;;;;;1.60;1.50;;;;;;;19.94;42.20;98017.72;6895141;28;20243;-85
2021/05/14 11:46:24;;;;;;;2.00;1.40;;;;;;;20.64;40.98;98015.25;6895621;28;20295;-84
2021/05/14 11:49:45;;;;;;;1.53;1.27;;;;;;;21.10;39.48;98005.47;6895818;28;20210;-84
2021/05/14 11:53:08;;;;;;;1.90;1.10;;;;;;;22.04;38.86;98000.69;6895460;28;20243;-84
2021/05/14 11:56:32;;;;;;;1.03;0.83;;;;;;;22.64;34.80;97985.97;6895429;28;20297;-85
2021/05/14 11:59:55;;;;;;;1.13;1.03;;;;;;;22.66;35.02;97982.91;6896219;28;20224;-91
2021/05/14 12:07:32;;;;;;;1.10;0.70;;;;;;;22.31;33.05;97961.53;6899056;28;20198;-90
2021/05/14 12:11:01;;;;;;;0.70;0.70;;;;;;;22.44;31.77;97969.84;6888330;28;20232;-89
2021/05/14 12:14:23;;;;;;;2.27;0.80;;;;;;;21.10;33.50;97967.09;6883910;28;20230;-88
2021/05/14 12:17:46;;;;;;;1.00;0.60;;;;;;;22.59;31.65;97971.50;6865728;28;20233;-86
2021/05/14 12:21:11;;;;;;;1.33;0.83;;;;;;;23.53;29.73;97974.31;6865864;28;20228;-87
2021/05/14 12:24:38;;;;;;;0.53;0.53;;;;;;;24.08;27.23;97972.25;6887089;28;20321;-87
2021/05/14 12:27:59;;;;;;;0.80;0.80;;;;;;;22.64;28.81;97974.97;6895311;28;20665;-87
2021/05/14 12:31:29;;;;;;;1.37;0.80;;;;;;;24.05;28.14;97962.69;6887519;28;20239;-88
2021/05/14 12:34:52;;;;;;;1.00;0.90;;;;;;;23.50;28.16;97950.16;6885326;28;20203;-88
2021/05/14 12:38:13;;;;;;;0.77;0.77;;;;;;;22.91;29.48;97947.53;6893739;28;20235;-88
2021/05/14 12:41:35;;;;;;;0.63;0.63;;;;;;;23.42;27.60;97895.84;6889617;28;20228;-90
2021/05/14 12:44:59;;;;;;;1.03;0.90;;;;;;;24.03;27.78;97961.38;6889601;28;20655;-90
2021/05/14 12:48:23;;;;;;;0.97;0.80;;;;;;;23.97;27.31;97938.66;6868234;28;20675;-87
2021/05/14 12:51:45;;;;;;;0.83;0.70;;;;;;;24.46;26.66;97960.53;6867030;28;20220;-88
2021/05/14 12:55:07;;;;;;;3.03;2.10;;;;;;;23.99;27.18;97963.09;6902566;28;20209;-87
2021/05/14 12:58:29;;;;;;;0.90;0.90;;;;;;;22.63;28.75;97945.03;6923950;28;20302;-88
2021/05/14 13:01:53;;;;;;;1.50;0.80;;;;;;;23.22;29.38;97934.81;6903078;28;20273;-89
2021/05/14 13:05:15;;;;;;;1.07;0.70;;;;;;;24.50;27.38;97909.19;6894914;28;20212;-89
2021/05/14 13:08:46;;;;;;;0.70;0.60;;;;;;;24.26;27.91;97941.75;6903470;28;20292;-92
2021/05/14 13:12:07;;;;;;;1.43;0.73;;;;;;;25.09;27.23;97927.97;6903275;28;20324;-90
2021/05/14 13:15:29;;;;;;;1.00;0.80;;;;;;;24.75;26.39;97944.38;6895733;28;20215;-90
2021/05/14 13:18:50;;;;;;;2.03;1.00;;;;;;;23.04;29.30;97946.72;6875788;28;20244;-89
2021/05/14 13:22:12;;;;;;;1.57;0.80;;;;;;;23.46;28.46;97954.66;6891269;28;20231;-87
2021/05/14 13:25:34;;;;;;;0.70;0.70;;;;;;;23.29;29.52;97943.47;6899137;28;20206;-86
2021/05/14 13:28:55;;;;;;;1.27;0.90;;;;;;;23.97;28.38;97935.91;6880768;28;20211;-87
2021/05/14 13:32:16;;;;;;;1.47;0.83;;;;;;;22.94;28.11;97902.91;6888996;28;20234;-87
2021/05/14 13:35:38;;;;;;;1.40;0.90;;;;;;;23.13;28.56;97924.81;6892512;28;20208;-87
2021/05/14 13:39:00;;;;;;;1.90;1.40;;;;;;;23.69;28.95;97934.31;6886106;28;20242;-87
2021/05/14 13:42:23;;;;;;;0.80;0.80;;;;;;;24.33;28.34;97936.63;6865265;28;20233;-86
2021/05/14 13:45:47;;;;;;;0.80;0.80;;;;;;;25.16;26.53;97933.84;6866505;28;20197;-86
2021/05/14 13:49:08;;;;;;;3.87;1.10;;;;;;;25.18;26.37;97934.31;6867395;28;20216;-86
2021/05/14 13:52:30;;;;;;;4.80;2.10;;;;;;;24.65;27.54;97927.31;6894322;28;20225;-84
2021/05/14 13:55:51;;;;;;;1.27;1.10;;;;;;;24.59;25.84;97907.31;6892846;28;20728;-82
2021/05/14 13:59:14;;;;;;;1.00;1.00;;;;;;;24.31;26.93;97922.34;6870646;28;20228;-86
2021/05/14 14:02:35;;;;;;;1.90;0.90;;;;;;;23.53;27.78;97926.69;6885198;28;20228;-84
2021/05/14 14:05:56;;;;;;;0.60;0.60;;;;;;;23.44;28.77;97915.63;6890530;28;20198;-86
2021/05/14 14:09:17;;;;;;;0.73;0.73;;;;;;;24.79;26.08;97919.72;6886657;28;20204;-86
2021/05/14 14:12:39;;;;;;;1.07;0.70;;;;;;;23.33;28.65;97916.97;6892928;28;20232;-85
2021/05/14 14:16:01;;;;;;;1.03;0.80;;;;;;;23.52;29.25;97911.31;6891187;28;20214;-86
2021/05/14 14:19:22;;;;;;;4.77;1.97;;;;;;;23.89;28.30;97922.06;6890475;28;20275;-85
2021/05/14 14:22:43;;;;;;;1.77;1.00;;;;;;;23.41;28.35;97907.97;6868006;28;20227;-86
2021/05/14 14:26:04;;;;;;;1.30;0.80;;;;;;;23.46;28.19;97918.88;6864789;28;20692;-86
2021/05/14 14:29:27;;;;;;;1.80;1.17;;;;;;;23.06;28.53;97916.97;6864903;28;20209;-86
2021/05/14 14:32:50;;;;;;;2.17;1.13;;;;;;;23.85;28.55;97913.56;6864759;28;20740;-85
2021/05/14 14:36:11;;;;;;;1.80;0.87;;;;;;;23.74;27.54;97914.13;6865168;28;20299;-85
2021/05/14 14:39:32;;;;;;;0.77;0.77;;;;;;;24.00;27.73;97913.22;6876442;28;20224;-85
2021/05/14 14:42:53;;;;;;;2.93;1.00;;;;;;;24.30;27.53;97920.72;6897012;28;20246;-86
2021/05/14 14:46:15;;;;;;;1.73;1.13;;;;;;;24.11;27.57;97916.53;6894029;28;20235;-87
2021/05/14 14:49:37;;;;;;;1.40;0.90;;;;;;;23.07;28.69;97880.09;6908542;28;20207;-86
2021/05/14 14:52:58;;;;;;;1.00;0.90;;;;;;;23.41;27.80;97896.97;6896620;28;20219;-85
2021/05/14 14:56:19;;;;;;;0.97;0.77;;;;;;;23.57;27.83;97916.72;6897194;28;20230;-86
2021/05/14 14:59:40;;;;;;;1.27;0.90;;;;;;;23.11;29.21;97916.88;6884776;28;20229;-84
2021/05/14 15:03:01;;;;;;;1.57;0.93;;;;;;;23.52;28.72;97908.56;6894448;28;20230;-85
2021/05/14 15:06:23;;;;;;;0.93;0.90;;;;;;;22.81;29.95;97919.41;6896146;28;20242;-85
2021/05/14 15:09:44;;;;;;;2.93;1.03;;;;;;;21.74;31.41;97918.81;6890198;28;20258;-85
2021/05/14 15:13:05;;;;;;;1.07;0.87;;;;;;;22.64;30.19;97924.69;6871478;28;20232;-86
2021/05/14 15:16:26;;;;;;;2.07;1.10;;;;;;;22.13;31.61;97916.50;6875007;28;20619;-85
2021/05/14 15:19:48;;;;;;;1.20;0.90;;;;;;;21.31;34.12;97908.16;6890789;28;20245;-86
2021/05/14 15:23:17;;;;;;;0.73;0.73;;;;;;;22.45;33.62;97900.03;6887607;28;20235;-84
2021/05/14 15:26:38;;;;;;;1.93;1.00;;;;;;;22.53;34.47;97907.56;6897373;28;20192;-85
2021/05/14 15:30:00;;;;;;;1.67;1.00;;;;;;;22.54;36.14;97908.41;6895069;28;20207;-86
2021/05/14 15:33:21;;;;;;;1.87;1.20;;;;;;;22.54;33.97;97865.25;6896346;28;20584;-87
2021/05/14 15:36:42;;;;;;;2.30;1.37;;;;;;;23.01;33.33;97913.53;6896871;28;20245;-87
2021/05/14 15:40:05;;;;;;;1.10;1.00;;;;;;;23.32;32.17;97896.09;6896233;28;20227;-89
2021/05/14 15:43:27;;;;;;;0.60;0.60;;;;;;;22.56;30.58;97886.91;6896359;28;20624;-89
2021/05/14 15:46:48;;;;;;;1.57;1.10;;;;;;;23.28;29.33;97908.00;6896989;28;20202;-88
2021/05/14 15:50:10;;;;;;;0.70;0.70;;;;;;;23.30;28.92;97912.06;6897886;28;20263;-88
2021/05/14 15:53:31;;;;;;;1.50;0.97;;;;;;;23.14;29.21;97902.47;6893456;28;20228;-88
2021/05/14 15:56:53;;;;;;;3.33;0.80;;;;;;;23.32;25.79;97912.59;6897008;28;20687;-90
2021/05/14 16:00:27;;;;;;;0.60;0.60;;;;;;;23.30;26.57;97883.78;6891198;28;20225;-89
2021/05/14 16:03:55;;;;;;;0.70;0.70;;;;;;;23.73;26.13;97923.50;6871376;28;20687;-87
2021/05/14 16:07:16;;;;;;;0.90;0.90;;;;;;;23.13;27.51;97908.31;6896859;28;20203;-88
2021/05/14 16:10:37;;;;;;;1.93;1.07;;;;;;;23.32;26.79;97912.59;6895103;28;20240;-89
2021/05/14 16:13:59;;;;;;;2.97;1.10;;;;;;;23.06;26.93;97908.72;6890914;28;20670;-88
2021/05/14 16:17:24;;;;;;;1.20;1.10;;;;;;;22.47;29.13;97929.94;6895180;28;20220;-89
2021/05/14 16:20:51;;;;;;;1.07;1.03;;;;;;;22.61;30.18;97928.06;6895748;28;20322;-86
2021/05/14 16:24:12;;;;;;;1.70;1.43;;;;;;;23.15;29.87;97925.31;6896194;28;20241;-89
2021/05/14 16:27:33;;;;;;;2.23;1.13;;;;;;;23.07;30.00;97895.78;6895743;28;20204;-89
2021/05/14 16:30:56;;;;;;;1.50;1.40;;;;;;;23.40;29.55;97927.53;6893959;28;20238;-88
2021/05/14 16:34:18;;;;;;;2.10;1.30;;;;;;;22.40;31.10;97922.06;6905914;28;20296;-86
2021/05/14 16:37:39;;;;;;;1.03;0.93;;;;;;;22.43;29.83;97928.94;6899429;28;20224;-89
2021/05/14 16:41:00;;;;;;;2.33;1.87;;;;;;;21.96;30.84;97927.22;6891398;28;20221;-88
2021/05/14 16:44:22;;;;;;;1.73;1.20;;;;;;;22.09;30.77;97931.13;6895160;28;20213;-87
2021/05/14 16:47:46;;;;;;;1.67;1.23;;;;;;;21.92;32.17;97934.44;6896259;28;20202;-85
2021/05/14 16:51:07;;;;;;;3.17;1.20;;;;;;;22.02;31.93;97945.22;6886551;28;20760;-86
2021/05/14 16:54:28;;;;;;;2.53;1.23;;;;;;;21.65;33.12;97947.19;6888788;28;20218;-85
2021/05/14 16:57:51;;;;;;;1.90;1.63;;;;;;;20.93;34.40;97925.66;6893249;28;20231;-85
2021/05/14 17:01:19;;;;;;;2.00;1.33;;;;;;;21.12;34.86;97958.59;6900234;28;20230;-86
2021/05/14 17:04:41;;;;;;;3.20;1.37;;;;;;;21.45;33.96;97937.31;6894672;28;20198;-92
2021/05/14 17:08:02;;;;;;;1.40;1.30;;;;;;;21.13;33.99;97937.16;6895140;28;20657;-90
2021/05/14 17:11:25;;;;;;;1.30;1.20;;;;;;;21.11;34.32;97965.97;6891366;28;20229;-85
2021/05/14 17:14:47;;;;;;;1.47;1.20;;;;;;;21.51;34.15;97974.53;6882020;28;20229;-86
2021/05/14 17:18:08;;;;;;;2.03;1.43;;;;;;;21.08;34.80;97957.53;6868827;28;20230;-86
2021/05/14 17:21:31;;;;;;;5.83;1.80;;;;;;;21.12;35.09;97986.84;6881546;28;20268;-88
2021/05/14 17:24:53;;;;;;;1.40;1.20;;;;;;;21.48;34.63;97975.09;6893219;28;20200;-86
2021/05/14 17:28:14;;;;;;;2.40;1.30;;;;;;;21.12;35.45;97991.50;6902697;28;20227;-85
2021/05/14 17:31:36;;;;;;;1.40;1.30;;;;;;;21.07;35.19;97991.53;6892989;28;20241;-85
2021/05/14 17:34:57;;;;;;;4.20;1.63;;;;;;;21.41;34.05;97991.09;6891474;28;20217;-85
2021/05/14 17:38:19;;;;;;;1.90;1.43;;;;;;;21.52;34.33;97995.34;6895290;28;20324;-85
2021/05/14 17:41:43;;;;;;;1.10;1.00;;;;;;;21.65;33.90;97999.31;6893818;28;20233;-85
2021/05/14 17:45:06;;;;;;;1.50;1.30;;;;;;;20.71;34.71;97993.84;6893233;28;20565;-85
2021/05/14 17:48:27;;;;;;;1.20;1.20;;;;;;;20.65;34.27;98005.13;6892870;28;20277;-85
2021/05/14 17:51:49;;;;;;;1.60;1.50;;;;;;;20.98;34.38;97994.09;6886311;28;20316;-86
2021/05/14 17:55:12;;;;;;;1.80;1.10;;;;;;;21.54;33.63;98001.34;6891923;28;20214;-85
2021/05/14 17:58:34;;;;;;;1.23;0.90;;;;;;;21.03;34.07;98007.75;6891206;28;20230;-86
2021/05/14 18:01:55;;;;;;;1.97;1.20;;;;;;;20.60;34.84;98007.91;6891507;28;20227;-85
2021/05/14 18:05:18;;;;;;;1.20;1.20;;;;;;;21.15;34.00;98008.16;6891910;28;20233;-85
2021/05/14 18:08:39;;;;;;;1.07;1.00;;;;;;;21.31;33.41;98017.84;6892229;28;20667;-86
2021/05/14 18:12:02;;;;;;;1.00;1.00;;;;;;;21.24;34.10;98023.69;6891633;28;20888;-86
2021/05/14 18:15:23;;;;;;;2.17;1.27;;;;;;;20.82;34.39;98041.91;6898456;28;20211;-84
2021/05/14 18:18:49;;;;;;;1.90;0.83;;;;;;;20.50;34.82;98030.72;6888910;28;20717;-84
2021/05/14 18:22:11;;;;;;;0.90;0.90;;;;;;;20.41;35.01;98046.13;6874518;28;20308;-85
2021/05/14 18:25:35;;;;;;;1.40;1.13;;;;;;;20.54;34.71;98031.78;6875976;28;20768;-85
2021/05/14 18:28:57;;;;;;;2.30;2.07;;;;;;;20.90;34.49;98056.94;6857189;28;20227;-85
2021/05/14 18:32:19;;;;;;;2.10;1.10;;;;;;;19.86;35.76;98062.09;6902330;28;20263;-84
2021/05/14 18:35:40;;;;;;;1.07;1.07;;;;;;;19.88;35.49;98070.84;6902181;28;20212;-86
2021/05/14 18:39:01;;;;;;;1.50;1.20;;;;;;;19.80;34.88;98074.16;6903175;28;20269;-84
2021/05/14 18:42:22;;;;;;;1.67;1.17;;;;;;;19.58;35.43;98076.47;6901618;28;20251;-85
2021/05/14 18:45:44;;;;;;;1.33;1.23;;;;;;;19.61;35.58;98064.94;6901656;28;20205;-85
2021/05/14 18:49:06;;;;;;;1.10;1.07;;;;;;;19.03;36.60;98060.19;6902361;28;20208;-85
2021/05/14 18:52:28;;;;;;;0.97;0.97;;;;;;;19.73;36.21;98087.31;6902418;28;20228;-85
2021/05/14 18:55:49;;;;;;;1.20;1.10;;;;;;;19.70;36.20;98088.69;6902877;28;20730;-84
2021/05/14 18:59:13;;;;;;;2.27;2.00;;;;;;;19.17;37.89;98105.00;6901074;28;20229;-85
2021/05/14 19:02:35;;;;;;;1.27;1.17;;;;;;;18.81;38.97;98085.09;6881007;28;20834;-84
2021/05/14 19:05:56;;;;;;;2.10;1.60;;;;;;;19.33;38.55;98110.16;6888392;28;20204;-85
2021/05/14 19:09:17;;;;;;;2.00;1.27;;;;;;;19.10;39.49;98099.78;6874826;28;20233;-85
2021/05/14 19:12:40;;;;;;;1.50;1.40;;;;;;;18.96;40.13;98095.19;6885310;28;20220;-85
2021/05/14 19:16:01;;;;;;;1.50;1.40;;;;;;;19.13;40.29;98107.47;6901437;28;20231;-85
2021/05/14 19:19:23;;;;;;;1.43;1.30;;;;;;;19.09;40.52;98111.00;6900381;28;20239;-85
2021/05/14 19:22:59;;;;;;;1.87;1.77;;;;;;;18.27;42.63;98124.09;6899490;28;20228;-84
2021/05/14 19:44:51;;;;;;;1.83;1.37;;;;;;;19.45;40.95;98137.22;6895523;28;20188;-85
2021/05/14 19:48:19;;;;;;;2.27;1.30;;;;;;;19.19;41.84;98132.84;6895596;28;20586;-85
2021/05/14 19:51:41;;;;;;;1.47;1.37;;;;;;;19.28;41.84;98136.69;6894354;28;20227;-84